createdAt,value
2022-09-29T00:00:35.257Z,10.50
2022-09-29T00:03:23.695Z,10.70
2022-09-29T00:05:53.062Z,9.90
2022-09-29T00:08:21.672Z,10.20
2022-09-29T00:10:48.914Z,10.00
2022-09-29T00:13:16.488Z,10.30
2022-09-29T00:20:42.379Z,10.00
2022-09-29T00:23:09.327Z,9.90
2022-09-29T00:25:36.337Z,10.30
2022-09-29T00:28:03.563Z,10.30
2022-09-29T00:30:30.517Z,10.30
2022-09-29T00:32:57.532Z,10.20
2022-09-29T00:35:24.696Z,10.00
2022-09-29T00:37:51.725Z,10.20
2022-09-29T00:40:18.852Z,9.70
2022-09-29T00:42:46.062Z,9.70
2022-09-29T00:45:19.781Z,9.80
2022-09-29T00:47:53.465Z,9.90
2022-09-29T00:50:33.198Z,9.70
2022-09-29T00:53:04.136Z,9.80
2022-09-29T00:55:45.344Z,10.30
2022-09-29T00:58:24.359Z,9.50
2022-09-29T01:00:51.769Z,10.60
2022-09-29T01:03:22.743Z,9.80
2022-09-29T01:05:54.985Z,9.90
2022-09-29T01:08:33.419Z,9.80
2022-09-29T01:11:01.918Z,9.70
2022-09-29T01:15:57.295Z,9.70
2022-09-29T01:18:24.800Z,10.00
2022-09-29T01:24:00.466Z,9.80
2022-09-29T01:26:55.800Z,9.80
2022-09-29T01:29:38.249Z,10.30
2022-09-29T01:32:23.750Z,9.90
2022-09-29T01:34:58.779Z,9.90
2022-09-29T01:37:58.116Z,10.10
2022-09-29T01:41:03.306Z,10.70
2022-09-29T01:43:51.463Z,9.80
2022-09-29T01:46:33.203Z,9.80
2022-09-29T01:49:02.489Z,10.20
2022-09-29T01:51:39.312Z,10.10
2022-09-29T01:54:13.221Z,10.10
2022-09-29T01:56:46.941Z,10.60
2022-09-29T01:59:36.748Z,10.20
2022-09-29T02:02:11.663Z,10.40
2022-09-29T02:04:47.125Z,10.10
2022-09-29T02:07:26.905Z,9.70
2022-09-29T02:10:00.725Z,9.90
2022-09-29T02:12:30.590Z,10.00
2022-09-29T02:14:59.866Z,10.00
2022-09-29T02:17:35.971Z,10.20
2022-09-29T02:20:03.969Z,10.30
2022-09-29T02:22:31.367Z,10.20
2022-09-29T02:24:59.525Z,10.40
2022-09-29T02:27:29.479Z,10.10
2022-09-29T02:29:58.676Z,10.20
2022-09-29T02:32:26.651Z,10.10
2022-09-29T02:34:55.100Z,10.20
2022-09-29T02:37:46.198Z,10.00
2022-09-29T02:40:22.033Z,9.90
2022-09-29T02:43:17.904Z,10.40
2022-09-29T02:46:17.938Z,10.30
2022-09-29T02:49:17.603Z,10.10
2022-09-29T02:51:50.766Z,10.10
2022-09-29T02:54:46.261Z,10.20
2022-09-29T02:57:20.006Z,10.20
2022-09-29T03:00:09.030Z,10.00
2022-09-29T03:02:37.408Z,10.30
2022-09-29T03:05:10.550Z,10.10
2022-09-29T03:07:38.804Z,10.70
2022-09-29T03:10:07.169Z,9.90
2022-09-29T03:12:34.809Z,9.90
2022-09-29T03:15:02.244Z,10.00
2022-09-29T03:17:29.406Z,10.10
2022-09-29T03:19:56.405Z,9.90
2022-09-29T03:22:24.598Z,10.00
2022-09-29T03:24:51.698Z,10.00
2022-09-29T03:29:46.368Z,10.10
2022-09-29T03:32:13.390Z,10.20
2022-09-29T03:34:40.420Z,9.90
2022-09-29T03:37:07.575Z,9.90
2022-09-29T03:39:34.626Z,9.40
2022-09-29T03:42:01.674Z,10.60
2022-09-29T03:44:28.890Z,9.90
2022-09-29T03:46:55.862Z,9.60
2022-09-29T03:49:22.834Z,9.40
2022-09-29T03:51:50.234Z,9.80
2022-09-29T03:54:17.178Z,9.50
2022-09-29T03:56:44.163Z,9.60
2022-09-29T03:59:12.332Z,9.50
2022-09-29T04:01:39.576Z,9.50
2022-09-29T04:04:07.008Z,9.40
2022-09-29T04:06:34.270Z,10.40
2022-09-29T04:09:01.312Z,9.30
2022-09-29T04:11:28.722Z,9.60
2022-09-29T04:13:56.134Z,9.70
2022-09-29T04:16:23.174Z,9.70
2022-09-29T04:18:50.151Z,9.70
2022-09-29T04:21:17.377Z,9.40
2022-09-29T04:23:46.329Z,9.30
2022-09-29T04:26:13.706Z,9.40
2022-09-29T04:28:40.924Z,9.60
2022-09-29T04:31:08.291Z,9.80
2022-09-29T04:33:35.816Z,9.30
2022-09-29T04:36:04.044Z,9.30
2022-09-29T04:38:31.680Z,9.70
2022-09-29T04:40:58.856Z,9.20
2022-09-29T04:43:26.264Z,9.80
2022-09-29T04:48:21.493Z,9.10
2022-09-29T04:50:51.329Z,9.10
2022-09-29T04:53:18.714Z,9.20
2022-09-29T04:55:45.716Z,10.30
2022-09-29T04:58:12.958Z,9.50
2022-09-29T05:00:40.391Z,9.90
2022-09-29T05:03:07.759Z,9.50
2022-09-29T05:05:35.030Z,9.30
2022-09-29T05:08:04.441Z,9.70
2022-09-29T05:10:31.866Z,9.50
2022-09-29T05:12:59.257Z,9.40
2022-09-29T05:15:26.295Z,9.40
2022-09-29T05:17:53.459Z,9.60
2022-09-29T05:20:20.667Z,9.70
2022-09-29T05:22:47.634Z,9.30
2022-09-29T05:25:14.768Z,9.50
2022-09-29T05:27:42.408Z,9.50
2022-09-29T05:30:09.788Z,9.40
2022-09-29T05:32:36.832Z,9.30
2022-09-29T05:39:58.977Z,9.50
2022-09-29T05:42:26.276Z,9.70
2022-09-29T05:44:53.594Z,9.40
2022-09-29T05:47:23.728Z,9.60
2022-09-29T05:49:50.933Z,9.70
2022-09-29T05:52:17.910Z,9.60
2022-09-29T05:54:44.982Z,9.80
2022-09-29T05:57:12.145Z,10.20
2022-09-29T05:59:40.278Z,9.80
2022-09-29T06:02:07.440Z,10.10
2022-09-29T06:04:40.527Z,10.00
2022-09-29T06:12:06.113Z,9.90
2022-09-29T06:14:33.131Z,9.90
2022-09-29T06:17:00.322Z,10.20
2022-09-29T06:19:27.573Z,10.10
2022-09-29T06:21:54.616Z,10.00
2022-09-29T06:24:21.797Z,10.20
2022-09-29T06:26:48.839Z,10.20
2022-09-29T06:29:15.940Z,11.10
2022-09-29T06:31:43.233Z,10.20
2022-09-29T06:34:10.602Z,10.40
2022-09-29T06:36:59.585Z,10.50
2022-09-29T06:39:27.685Z,10.40
2022-09-29T06:41:56.415Z,10.40
2022-09-29T06:44:26.922Z,10.00
2022-09-29T06:46:57.832Z,10.70
2022-09-29T06:49:25.477Z,10.30
2022-09-29T06:51:52.509Z,10.50
2022-09-29T06:54:23.412Z,10.40
2022-09-29T06:56:51.744Z,10.40
2022-09-29T06:59:19.124Z,11.70
2022-09-29T07:01:50.829Z,10.80
2022-09-29T07:04:20.099Z,10.40
2022-09-29T07:06:48.017Z,11.00
2022-09-29T07:09:18.259Z,10.50
2022-09-29T07:11:49.270Z,11.00
2022-09-29T07:14:17.948Z,10.80
2022-09-29T07:16:47.292Z,10.70
2022-09-29T07:24:09.980Z,10.90
2022-09-29T07:29:05.783Z,10.60
2022-09-29T07:31:43.140Z,11.20
2022-09-29T07:34:15.195Z,11.00
2022-09-29T07:36:42.181Z,11.50
2022-09-29T07:46:34.454Z,12.00
2022-09-29T07:49:01.752Z,11.70
2022-09-29T07:51:28.798Z,12.10
2022-09-29T07:53:56.178Z,12.00
2022-09-29T07:56:23.409Z,12.00
2022-09-29T07:58:51.002Z,12.00
2022-09-29T08:01:19.440Z,11.70
2022-09-29T08:03:53.066Z,12.00
2022-09-29T08:06:21.207Z,12.40
2022-09-29T08:09:01.136Z,12.40
2022-09-29T08:11:32.387Z,12.20
2022-09-29T08:14:02.108Z,11.90
2022-09-29T08:16:29.755Z,12.10
2022-09-29T08:18:56.873Z,12.30
2022-09-29T08:21:24.135Z,12.00
2022-09-29T08:26:32.083Z,11.70
2022-09-29T08:29:08.213Z,12.30
2022-09-29T08:31:37.351Z,12.60
2022-09-29T08:36:32.420Z,12.00
2022-09-29T08:38:59.764Z,11.80
2022-09-29T08:41:34.061Z,12.00
2022-09-29T08:44:27.456Z,11.80
2022-09-29T08:47:16.143Z,11.60
2022-09-29T08:49:48.192Z,12.10
2022-09-29T08:52:51.205Z,11.80
2022-09-29T08:55:22.035Z,12.20
2022-09-29T08:57:58.409Z,12.40
2022-09-29T09:00:55.480Z,12.50
2022-09-29T09:03:45.176Z,12.30
2022-09-29T09:06:41.288Z,12.40
2022-09-29T09:09:14.087Z,12.40
2022-09-29T09:12:06.273Z,12.40
2022-09-29T09:15:07.654Z,12.70
2022-09-29T09:18:02.362Z,12.20
2022-09-29T09:20:36.517Z,12.60
2022-09-29T09:23:15.237Z,12.10
2022-09-29T09:25:55.550Z,12.70
2022-09-29T09:28:35.913Z,12.60
2022-09-29T09:31:08.198Z,12.50
2022-09-29T09:33:41.863Z,12.80
2022-09-29T09:36:33.499Z,12.50
2022-09-29T09:39:16.470Z,12.20
2022-09-29T09:41:48.040Z,12.10
2022-09-29T09:44:26.904Z,12.20
2022-09-29T09:46:59.439Z,12.70
2022-09-29T09:49:41.768Z,12.80
2022-09-29T09:52:33.046Z,12.90
2022-09-29T09:55:04.623Z,12.90
2022-09-29T09:58:02.707Z,12.90
2022-09-29T10:01:00.532Z,13.00
2022-09-29T10:03:31.478Z,13.10
2022-09-29T10:05:58.819Z,13.10
2022-09-29T10:08:29.322Z,13.10
2022-09-29T10:10:59.605Z,13.00
2022-09-29T10:13:29.190Z,13.00
2022-09-29T10:16:17.274Z,13.00
2022-09-29T10:18:48.651Z,13.00
2022-09-29T10:21:26.215Z,13.50
2022-09-29T10:23:58.090Z,13.40
2022-09-29T10:26:43.402Z,13.20
2022-09-29T10:29:25.677Z,13.40
2022-09-29T10:32:04.496Z,13.40
2022-09-29T10:34:34.041Z,13.60
2022-09-29T10:37:05.679Z,14.30
2022-09-29T10:39:43.083Z,14.20
2022-09-29T10:42:31.245Z,14.30
2022-09-29T10:45:07.643Z,14.80
2022-09-29T10:47:34.952Z,14.80
2022-09-29T10:50:16.001Z,14.60
2022-09-29T10:53:07.952Z,14.60
2022-09-29T10:55:48.923Z,15.20
2022-09-29T10:59:00.235Z,15.00
2022-09-29T11:01:32.830Z,15.20
2022-09-29T11:04:05.831Z,15.10
2022-09-29T11:06:38.444Z,15.30
2022-09-29T11:09:27.981Z,15.10
2022-09-29T11:12:01.639Z,16.10
2022-09-29T11:14:40.084Z,16.20
2022-09-29T11:17:30.179Z,16.10
2022-09-29T11:20:06.825Z,15.50
2022-09-29T11:22:43.355Z,15.70
2022-09-29T11:25:48.695Z,15.60
2022-09-29T11:28:21.974Z,15.50
2022-09-29T11:31:09.398Z,15.50
2022-09-29T11:33:43.276Z,15.30
2022-09-29T11:36:38.378Z,15.00
2022-09-29T11:39:14.416Z,15.00
2022-09-29T11:42:02.967Z,14.90
2022-09-29T11:44:58.306Z,14.70
2022-09-29T11:47:37.514Z,14.50
2022-09-29T11:50:29.696Z,14.40
2022-09-29T11:53:14.398Z,14.30
2022-09-29T11:56:03.214Z,14.40
2022-09-29T11:59:08.897Z,14.40
2022-09-29T12:01:57.621Z,14.50
2022-09-29T12:04:55.391Z,14.70
2022-09-29T12:07:46.179Z,14.90
2022-09-29T12:10:39.277Z,14.80
2022-09-29T12:13:25.505Z,15.20
2022-09-29T12:16:08.112Z,15.30
2022-09-29T12:18:43.765Z,15.30
2022-09-29T12:21:17.946Z,15.10
2022-09-29T12:23:47.561Z,15.40
2022-09-29T12:26:21.693Z,15.00
2022-09-29T12:29:16.966Z,15.00
2022-09-29T12:31:48.748Z,15.40
2022-09-29T12:34:36.569Z,15.80
2022-09-29T12:37:17.584Z,15.60
2022-09-29T12:40:00.438Z,15.90
2022-09-29T12:42:41.833Z,15.70
2022-09-29T12:45:19.018Z,16.10
2022-09-29T12:48:07.143Z,15.70
2022-09-29T12:50:46.785Z,15.80
2022-09-29T12:53:43.131Z,15.60
2022-09-29T12:56:26.248Z,15.60
2022-09-29T12:59:27.481Z,15.60
2022-09-29T13:01:57.698Z,15.50
2022-09-29T13:04:52.200Z,15.50
2022-09-29T13:07:19.368Z,15.60
2022-09-29T13:10:02.727Z,15.50
2022-09-29T13:13:07.401Z,15.30
2022-09-29T13:15:58.180Z,15.20
2022-09-29T13:19:14.580Z,15.00
2022-09-29T13:22:14.562Z,15.00
2022-09-29T13:25:28.724Z,15.00
2022-09-29T13:27:57.232Z,15.00
2022-09-29T13:30:28.750Z,15.00
2022-09-29T13:33:21.053Z,15.00
2022-09-29T13:35:50.296Z,14.90
2022-09-29T13:38:30.596Z,14.60
2022-09-29T13:41:23.697Z,14.70
2022-09-29T13:43:50.691Z,14.70
2022-09-29T13:46:28.202Z,15.30
2022-09-29T13:49:09.220Z,14.70
2022-09-29T13:51:53.455Z,14.90
2022-09-29T13:54:27.141Z,15.00
2022-09-29T13:57:12.323Z,15.00
2022-09-29T13:59:42.953Z,14.90
2022-09-29T14:02:58.242Z,15.30
2022-09-29T14:05:28.722Z,15.00
2022-09-29T14:07:56.094Z,15.00
2022-09-29T14:10:39.283Z,15.00
2022-09-29T14:13:14.056Z,15.10
2022-09-29T14:15:46.381Z,15.10
2022-09-29T14:18:29.443Z,15.10
2022-09-29T14:21:11.855Z,15.00
2022-09-29T14:23:49.373Z,14.90
2022-09-29T14:26:44.246Z,14.90
2022-09-29T14:29:34.085Z,15.10
2022-09-29T14:32:03.280Z,15.20
2022-09-29T14:34:33.972Z,14.90
2022-09-29T14:37:03.875Z,15.40
2022-09-29T14:39:32.174Z,15.00
2022-09-29T14:44:53.219Z,14.90
2022-09-29T14:48:00.642Z,14.70
2022-09-29T14:51:00.102Z,14.50
2022-09-29T14:53:46.190Z,14.50
2022-09-29T14:56:15.996Z,14.30
2022-09-29T14:59:10.961Z,14.00
2022-09-29T15:02:07.359Z,14.70
2022-09-29T15:04:39.208Z,14.40
2022-09-29T15:07:13.138Z,14.50
2022-09-29T15:09:46.803Z,14.30
2022-09-29T15:12:22.556Z,13.40
2022-09-29T15:14:50.410Z,14.20
2022-09-29T15:17:31.239Z,14.30
2022-09-29T15:20:09.044Z,13.50
2022-09-29T15:23:04.371Z,13.50
2022-09-29T15:25:37.430Z,13.90
2022-09-29T15:28:12.654Z,13.40
2022-09-29T15:30:40.355Z,13.60
2022-09-29T15:33:16.925Z,13.60
2022-09-29T15:35:46.353Z,13.20
2022-09-29T15:40:40.849Z,13.60
2022-09-29T15:43:28.198Z,12.60
2022-09-29T15:46:02.672Z,13.70
2022-09-29T15:48:31.491Z,13.30
2022-09-29T15:50:59.211Z,13.90
2022-09-29T15:53:27.801Z,13.00
2022-09-29T15:55:55.932Z,10.40
2022-09-29T15:58:26.112Z,13.30
2022-09-29T16:00:59.070Z,12.60
2022-09-29T16:03:30.194Z,13.10
2022-09-29T16:06:07.002Z,14.00
2022-09-29T16:08:46.176Z,12.80
2022-09-29T16:11:23.283Z,12.80
2022-09-29T16:14:03.199Z,12.50
2022-09-29T16:16:35.504Z,12.40
2022-09-29T16:19:09.981Z,12.90
2022-09-29T16:21:38.511Z,12.40
2022-09-29T16:24:19.275Z,12.40
2022-09-29T16:26:52.600Z,12.50
2022-09-29T16:29:19.765Z,11.90
2022-09-29T16:31:49.074Z,12.60
2022-09-29T16:34:24.853Z,12.20
2022-09-29T16:36:57.145Z,12.90
2022-09-29T16:39:30.521Z,11.90
2022-09-29T16:41:59.993Z,12.20
2022-09-29T16:44:32.603Z,11.80
2022-09-29T16:47:12.646Z,11.90
2022-09-29T16:49:57.770Z,12.50
2022-09-29T16:52:27.106Z,12.10
2022-09-29T16:55:16.171Z,12.10
2022-09-29T16:58:06.145Z,11.70
2022-09-29T17:05:47.713Z,12.50
2022-09-29T17:10:42.838Z,12.00
2022-09-29T17:13:14.750Z,11.50
2022-09-29T17:15:43.886Z,13.20
2022-09-29T17:18:13.149Z,11.70
2022-09-29T17:20:40.855Z,11.60
2022-09-29T17:23:09.065Z,11.40
2022-09-29T17:25:39.498Z,11.60
2022-09-29T17:28:23.881Z,11.60
2022-09-29T17:30:51.928Z,10.70
2022-09-29T17:33:20.284Z,11.70
2022-09-29T17:35:55.295Z,11.50
2022-09-29T17:41:04.656Z,11.10
2022-09-29T17:43:32.211Z,11.10
2022-09-29T17:46:00.745Z,10.70
2022-09-29T17:48:34.294Z,10.80
2022-09-29T17:51:04.095Z,10.70
2022-09-29T17:53:31.240Z,10.70
2022-09-29T17:58:26.389Z,10.20
2022-09-29T18:00:57.437Z,10.40
2022-09-29T18:03:24.567Z,11.50
2022-09-29T18:05:56.560Z,11.30
2022-09-29T18:08:25.974Z,10.60
2022-09-29T18:11:01.756Z,9.90
2022-09-29T18:13:33.820Z,10.40
2022-09-29T18:16:05.470Z,10.00
2022-09-29T18:21:06.451Z,9.30
2022-09-29T18:23:34.951Z,9.80
2022-09-29T18:26:02.575Z,9.60
2022-09-29T18:28:29.898Z,9.80
2022-09-29T18:31:27.113Z,9.60
2022-09-29T18:36:22.252Z,9.30
2022-09-29T18:38:49.702Z,9.70
2022-09-29T18:41:20.349Z,9.70
2022-09-29T18:43:48.006Z,9.50
2022-09-29T18:46:15.545Z,9.40
2022-09-29T18:48:42.903Z,9.50
2022-09-29T18:51:13.390Z,9.50
2022-09-29T18:53:42.073Z,9.10
2022-09-29T18:56:16.598Z,8.70
2022-09-29T19:01:16.192Z,8.90
2022-09-29T19:03:43.702Z,8.70
2022-09-29T19:06:15.822Z,9.10
2022-09-29T19:08:44.472Z,9.00
2022-09-29T19:11:20.135Z,9.00
2022-09-29T19:13:51.594Z,8.40
2022-09-29T19:16:18.936Z,8.60
2022-09-29T19:18:46.234Z,8.60
2022-09-29T19:21:14.718Z,8.70
2022-09-29T19:23:42.905Z,8.80
2022-09-29T19:26:12.448Z,8.40
2022-09-29T19:28:42.934Z,8.10
2022-09-29T19:31:19.702Z,8.60
2022-09-29T19:33:48.355Z,8.50
2022-09-29T19:36:19.032Z,8.50
2022-09-29T19:38:46.342Z,8.20
2022-09-29T19:41:20.326Z,8.30
2022-09-29T19:43:48.243Z,8.40
2022-09-29T19:46:16.881Z,8.20
2022-09-29T19:48:45.197Z,7.90
2022-09-29T19:51:33.992Z,8.50
2022-09-29T19:54:17.152Z,8.20
2022-09-29T19:56:49.945Z,8.10
2022-09-29T19:59:20.656Z,8.70
2022-09-29T20:01:50.243Z,8.20
2022-09-29T20:04:19.925Z,7.90
2022-09-29T20:09:17.035Z,8.10
2022-09-29T20:11:50.004Z,7.40
2022-09-29T20:14:20.694Z,7.80
2022-09-29T20:16:47.808Z,7.80
2022-09-29T20:19:16.669Z,7.90
2022-09-29T20:21:48.998Z,7.60
2022-09-29T20:24:17.830Z,7.40
2022-09-29T20:26:47.198Z,7.80
2022-09-29T20:29:18.932Z,7.80
2022-09-29T20:31:49.156Z,8.10
2022-09-29T20:34:18.679Z,8.60
2022-09-29T20:36:48.661Z,7.50
2022-09-29T20:39:19.175Z,7.90
2022-09-29T20:41:46.521Z,8.20
2022-09-29T20:49:09.800Z,7.60
2022-09-29T20:51:38.108Z,7.70
2022-09-29T20:56:40.532Z,7.60
2022-09-29T20:59:16.982Z,7.50
2022-09-29T21:01:45.263Z,7.50
2022-09-29T21:04:15.968Z,7.50
2022-09-29T21:06:46.049Z,7.60
2022-09-29T21:09:17.657Z,7.40
2022-09-29T21:11:47.084Z,7.40
2022-09-29T21:14:18.928Z,7.40
2022-09-29T21:16:51.397Z,7.40
2022-09-29T21:19:19.640Z,7.30
2022-09-29T21:21:47.000Z,7.80
2022-09-29T21:24:14.772Z,7.10
2022-09-29T21:26:43.349Z,6.70
2022-09-29T21:29:17.496Z,7.20
2022-09-29T21:31:45.708Z,7.10
2022-09-29T21:34:13.986Z,7.30
2022-09-29T21:36:42.518Z,7.40
2022-09-29T21:39:10.525Z,7.10
2022-09-29T21:41:41.434Z,7.20
2022-09-29T21:44:13.145Z,7.30
2022-09-29T21:46:41.908Z,7.30
2022-09-29T21:49:10.348Z,6.90
2022-09-29T21:51:43.315Z,7.00
2022-09-29T21:54:16.464Z,7.20
2022-09-29T21:56:45.221Z,6.60
2022-09-29T21:59:17.208Z,6.90
2022-09-29T22:01:45.302Z,6.70
2022-09-29T22:04:13.746Z,6.60
2022-09-29T22:06:44.869Z,7.00
2022-09-29T22:09:16.874Z,6.80
2022-09-29T22:14:13.368Z,6.90
2022-09-29T22:16:40.625Z,7.10
2022-09-29T22:19:25.648Z,7.60
2022-09-29T22:21:53.967Z,6.70
2022-09-29T22:24:23.756Z,6.70
2022-09-29T22:26:50.941Z,6.70
2022-09-29T22:29:17.913Z,6.70
2022-09-29T22:31:46.116Z,6.70
2022-09-29T22:34:13.224Z,6.60
2022-09-29T22:36:40.325Z,6.60
2022-09-29T22:39:08.221Z,6.60
2022-09-29T22:41:39.582Z,6.60
2022-09-29T22:44:07.814Z,6.60
2022-09-29T22:46:35.795Z,6.60
2022-09-29T22:49:03.403Z,6.50
2022-09-29T22:51:30.674Z,6.50
2022-09-29T22:53:57.940Z,6.10
2022-09-29T22:56:28.912Z,6.60
2022-09-29T22:59:01.263Z,6.40
2022-09-29T23:01:29.289Z,5.90
2022-09-29T23:03:58.935Z,6.20
2022-09-29T23:06:26.068Z,6.40
2022-09-29T23:08:55.425Z,6.60
2022-09-29T23:11:23.485Z,6.20
2022-09-29T23:13:51.220Z,6.20
2022-09-29T23:16:18.848Z,6.10
2022-09-29T23:18:47.227Z,6.40
2022-09-29T23:21:19.101Z,6.30
2022-09-29T23:23:58.127Z,6.20
2022-09-29T23:26:26.169Z,7.00
2022-09-29T23:28:55.273Z,6.10
2022-09-29T23:31:23.195Z,6.40
2022-09-29T23:33:55.995Z,6.50
2022-09-29T23:36:25.477Z,6.50
2022-09-29T23:39:10.560Z,6.10
2022-09-29T23:41:42.282Z,5.90
2022-09-29T23:44:10.383Z,6.10
2022-09-29T23:46:39.859Z,6.10
2022-09-29T23:49:10.393Z,6.30
2022-09-29T23:51:43.794Z,6.30
2022-09-29T23:54:14.512Z,6.10
2022-09-29T23:56:42.121Z,5.70
2022-09-29T23:59:09.382Z,5.90
